Pagrindinis puslapis
METAR-TAF:

METAR-TAF

Oro uostai :

Damaskas, Sirija

platuma: 33-25N, ilguma: 036-31E, Aukštis: 608 m

Dabartinis oras

Ataskaita buvo paskelbta 1 valandą ir 39 minutes, ne 13:00 UTC
Vėjas 23 kt iš Pietvakarių
Temperatūra 39°C
Drėgmė 11%
Slėgis 1005 hPa
Matomumas 10 km arba daugiau
nėra debesų žemiau 1500 m ir nėra kamuolinių lietaus debesų

METAR: OSDI 181300Z 22023KT CAVOK 39/03 Q1005

Laikas: 17:39 (14:39 UTC)

Prognozė

Ataskaita buvo paskelbta 4 valandos ir 39 minutes, ne 10:00 UTC
Prognozė galioja nuo 18 metu 12 UTC su 19 metu 18 UTC
Vėjas 10 kt iš Pietvakarių
Matomumas 10 km arba daugiau
nėra debesų žemiau 1500 m ir nėra kamuolinių lietaus debesų
Laikinai
nuo 18 metu 12 UTC su 18 metu 18 UTC
Vėjas 15 kt iš Pietvakarių su gūsio iki 25 kt

TAF: OSDI 181000Z 1812/1918 22010KT CAVOK TEMPO 1812/1818 23015G25KT

Orai ataskaitas ir orų prognozės (METAR, TAF).

turimą stotys yra geltonos ir raudonos taškus žemėlapyje.

Perkelti pele per norėdami pamatyti stoties vardą.

Tada spustelėkite, norėdami matyti oro stebėjimo ir prognozės.

Norėdami pakeisti žemėlapį: spustelėkite ant žalios mygtukų su juodo kryžiaus žemyn,; žalią mygtuką su brūkšneliu, jei norite nutolinti; arba žalių rodyklių gretimoms žemėlapius.


METAR-TAF: